Portada
METAR-TAF:

METAR-TAF

Aeroports :

Kerman, Iran

latitud: 30-15N, longitud: 056-58E, altitud: 1748 m

Observació

L'informe es va fer fa 31 minuts, a les 05:00 UTC
Vent 4 kt del Est/Sud-Est
Temperatura 9°C
Humitat 57%
Pressió 1027 hPa
Visibilitat 10 km o més
Escasses núvols a una alçada de 4000 ft
Cel ennuvolat a una alçada de 10000 ft

METAR: OIKK 020500Z 11004KT 9999 FEW040 BKN100 09/01 Q1026 A3033

Hora: 09:01 (05:31 UTC)

Pronòstic

L'informe es va fer fa 6 hores i 31 minuts, a les 23:00 UTC
Pronòstic vàlid del 02 a les 00 UTC al 03 a les 06 UTC
Vent 10 kt del Sud/Sud-Oest
Visibilitat 10 km o més
Escasses núvols a una alçada de 3500 ft
Cel ennuvolat a una alçada de 9000 ft
Evolucionant progressivament
l' 02 a les 10 UTC al 02 a les 12 UTC
Visibilitat 10 km o més
sense núvols per sota de 1500 mi sense presència de cumulonimbus.

TAF: OIKK 012300Z 0200/0306 20010KT 9999 FEW035 BKN090 BECMG 0210/0212 CAVOK

Observacions i pronòstics meteorològics de més de 4000 aeroports (METAR i TAF).

Les estacions disponibles són els punts grocs i vermells al mapa.

Posi el ratolí al punt desitjat per veure el nom de l'estació.

Feu clic per veure les observacions i els pronòstics meteorològics.

Per canviar el mapa: feu clic els botons verds amb una creu de color negre per apropar; al botó verd amb un guió per allunyar la imatge; o en les fletxes verdes per a mapes adjacents.


METAR-TAF: